Time;durP1;ratioP1;P1;durP2;ratioP2;P2;SDS_P1;SDS_P2;PMS_P1;PMS_P2;Temp;Humidity;BMP_temperature;BMP_pressure;BME280_temperature;BME280_humidity;BME280_pressure;Samples;Min_cycle;Max_cycle;Signal;HPM_P1;HPM_P2
2023/11/03 00:00:07;;;;;;;1.90;1.70;;;21.90;58.60;;;;;;5037007;28;20421;-67
2023/11/03 00:02:33;;;;;;;2.00;1.67;;;21.90;58.60;;;;;;5036122;28;20478;-67
2023/11/03 00:05:01;;;;;;;2.13;1.83;;;21.90;58.60;;;;;;5036261;28;20476;-66
2023/11/03 00:07:30;;;;;;;1.83;1.63;;;21.90;58.60;;;;;;5036396;28;20549;-66
2023/11/03 00:09:56;;;;;;;2.73;2.00;;;21.90;58.60;;;;;;5036404;28;20937;-67
2023/11/03 00:12:23;;;;;;;1.90;1.73;;;21.90;58.60;;;;;;5036082;28;20990;-66
2023/11/03 00:14:49;;;;;;;2.00;1.50;;;21.90;58.60;;;;;;5035512;28;20493;-67
2023/11/03 00:17:15;;;;;;;2.40;1.53;;;21.90;58.60;;;;;;5035020;28;20477;-66
2023/11/03 00:19:41;;;;;;;2.00;1.77;;;21.80;58.50;;;;;;5035929;28;20163;-66
2023/11/03 00:22:07;;;;;;;2.00;1.80;;;21.80;58.50;;;;;;5036188;28;20789;-65
2023/11/03 00:24:33;;;;;;;2.30;1.53;;;21.90;58.60;;;;;;5034387;28;20180;-66
2023/11/03 00:26:58;;;;;;;1.60;1.50;;;21.80;58.50;;;;;;5035174;28;20188;-66
2023/11/03 00:29:27;;;;;;;2.70;2.23;;;21.80;58.50;;;;;;5035873;28;20175;-66
2023/11/03 00:31:53;;;;;;;2.97;1.90;;;21.80;58.50;;;;;;5035687;28;20187;-67
2023/11/03 00:34:19;;;;;;;2.40;1.80;;;21.80;58.50;;;;;;5035320;28;20512;-66
2023/11/03 00:36:47;;;;;;;1.90;1.70;;;21.80;58.50;;;;;;5035081;28;20987;-67
2023/11/03 00:39:14;;;;;;;2.50;1.70;;;21.90;58.50;;;;;;5035488;28;20501;-66
2023/11/03 00:41:40;;;;;;;2.40;1.90;;;21.80;58.50;;;;;;5035561;28;20406;-66
2023/11/03 00:44:07;;;;;;;2.70;1.57;;;21.80;58.50;;;;;;5035231;28;20403;-66
2023/11/03 00:46:35;;;;;;;1.80;1.70;;;21.90;58.50;;;;;;5034198;28;20517;-67
2023/11/03 00:49:01;;;;;;;2.00;1.80;;;21.80;58.50;;;;;;5035754;28;20487;-65
2023/11/03 00:51:27;;;;;;;1.93;1.70;;;21.80;58.50;;;;;;5035447;28;20430;-66
2023/11/03 00:53:53;;;;;;;2.20;2.00;;;21.90;58.50;;;;;;5035320;28;20457;-66
2023/11/03 00:56:18;;;;;;;1.57;1.30;;;21.80;58.40;;;;;;5034992;28;20195;-67
2023/11/03 00:58:45;;;;;;;2.07;1.80;;;21.80;58.50;;;;;;5035329;28;20647;-66
2023/11/03 01:01:13;;;;;;;1.70;1.60;;;21.80;58.50;;;;;;5034842;28;20571;-66
2023/11/03 01:03:39;;;;;;;2.13;1.93;;;21.80;58.50;;;;;;5035524;28;20438;-66
2023/11/03 01:06:05;;;;;;;1.80;1.60;;;21.80;58.40;;;;;;5035410;28;20536;-67
2023/11/03 01:08:31;;;;;;;1.90;1.80;;;21.80;58.50;;;;;;5035048;28;20429;-66
2023/11/03 01:10:57;;;;;;;2.00;1.63;;;21.80;58.50;;;;;;5035153;28;20415;-65
2023/11/03 01:13:23;;;;;;;1.60;1.50;;;21.80;58.50;;;;;;5034926;28;20599;-67
2023/11/03 01:15:48;;;;;;;3.07;1.97;;;21.80;58.50;;;;;;5034971;28;20191;-67
2023/11/03 01:18:15;;;;;;;1.70;1.60;;;21.80;58.50;;;;;;5034145;28;20195;-67
2023/11/03 01:20:41;;;;;;;2.07;1.60;;;21.80;58.50;;;;;;5037621;28;20186;-65
2023/11/03 01:23:07;;;;;;;2.70;1.83;;;21.80;58.50;;;;;;5054979;28;20401;-66
2023/11/03 01:25:32;;;;;;;1.87;1.70;;;21.80;58.50;;;;;;5054873;28;20194;-66
2023/11/03 01:27:59;;;;;;;2.47;1.53;;;21.80;58.50;;;;;;5055432;28;20440;-66
2023/11/03 01:30:26;;;;;;;1.87;1.70;;;21.80;58.50;;;;;;5059471;28;20166;-66
2023/11/03 01:32:55;;;;;;;1.93;1.57;;;21.80;58.50;;;;;;5058800;28;20409;-67
2023/11/03 01:35:21;;;;;;;1.90;1.70;;;21.80;58.50;;;;;;5059033;28;20529;-67
2023/11/03 01:37:47;;;;;;;1.53;1.43;;;21.80;58.50;;;;;;5059772;28;20410;-66
2023/11/03 01:40:14;;;;;;;2.43;1.90;;;21.80;58.50;;;;;;5059304;28;20777;-66
2023/11/03 01:42:42;;;;;;;1.93;1.77;;;21.80;58.50;;;;;;5058951;28;20593;-66
2023/11/03 01:45:08;;;;;;;1.57;1.47;;;21.80;58.50;;;;;;5059392;28;20461;-67
2023/11/03 01:47:33;;;;;;;1.87;1.40;;;21.80;58.50;;;;;;5059022;28;20877;-67
2023/11/03 01:50:00;;;;;;;1.57;1.43;;;21.80;58.50;;;;;;5059755;28;20417;-67
2023/11/03 01:52:26;;;;;;;1.90;1.70;;;21.80;58.50;;;;;;5058948;28;20216;-67
2023/11/03 01:54:53;;;;;;;2.20;1.70;;;21.80;58.50;;;;;;5059199;28;20580;-67
2023/11/03 01:57:19;;;;;;;2.40;1.57;;;21.80;58.50;;;;;;5058565;28;20421;-66
2023/11/03 01:59:49;;;;;;;2.10;1.90;;;21.80;58.50;;;;;;5058944;28;20496;-67
2023/11/03 02:02:15;;;;;;;1.80;1.60;;;21.80;58.50;;;;;;5058642;28;20447;-67
2023/11/03 02:04:41;;;;;;;2.83;1.73;;;21.70;58.40;;;;;;5057218;28;21039;-67
2023/11/03 02:07:07;;;;;;;1.80;1.40;;;21.70;58.40;;;;;;5056980;28;20457;-67
2023/11/03 02:09:33;;;;;;;1.63;1.50;;;21.80;58.50;;;;;;5058986;28;20234;-67
2023/11/03 02:11:58;;;;;;;3.43;1.50;;;21.70;58.40;;;;;;5058546;28;20174;-66
2023/11/03 02:14:24;;;;;;;2.20;1.90;;;21.70;58.40;;;;;;5058725;28;20532;-66
2023/11/03 02:16:50;;;;;;;1.93;1.60;;;21.70;58.40;;;;;;5059044;28;20198;-66
2023/11/03 02:19:16;;;;;;;1.90;1.50;;;21.70;58.40;;;;;;5058700;28;20251;-66
2023/11/03 02:21:43;;;;;;;1.67;1.57;;;21.80;58.50;;;;;;5058352;28;20484;-68
2023/11/03 02:24:09;;;;;;;1.60;1.50;;;21.80;58.50;;;;;;5058011;28;20183;-67
2023/11/03 02:26:35;;;;;;;1.60;1.30;;;21.80;58.50;;;;;;5058244;28;20429;-66
2023/11/03 02:29:03;;;;;;;2.00;1.83;;;21.70;58.40;;;;;;5058178;28;20428;-67
2023/11/03 02:31:32;;;;;;;2.37;1.70;;;21.80;58.50;;;;;;5058301;28;20412;-67
2023/11/03 02:33:58;;;;;;;2.13;1.73;;;21.70;58.40;;;;;;5057674;28;21079;-66
2023/11/03 02:36:24;;;;;;;2.07;1.60;;;21.70;58.30;;;;;;5058741;28;20425;-66
2023/11/03 02:38:51;;;;;;;2.40;1.67;;;21.80;58.40;;;;;;5058054;28;20451;-67
2023/11/03 02:41:17;;;;;;;2.20;1.40;;;21.70;58.30;;;;;;5055465;28;20488;-68
2023/11/03 02:43:43;;;;;;;2.00;1.83;;;21.80;58.40;;;;;;5057678;28;20516;-66
2023/11/03 02:46:08;;;;;;;1.60;1.50;;;21.70;58.40;;;;;;5057882;28;20266;-67
2023/11/03 02:48:34;;;;;;;1.90;1.50;;;21.70;58.40;;;;;;5058186;28;20175;-66
2023/11/03 02:51:00;;;;;;;2.80;1.57;;;21.70;58.40;;;;;;5057082;28;20222;-66
2023/11/03 02:53:26;;;;;;;2.27;1.30;;;21.70;58.40;;;;;;5057479;28;20171;-67
2023/11/03 02:55:52;;;;;;;2.20;1.70;;;21.70;58.40;;;;;;5057746;28;20447;-67
2023/11/03 02:58:19;;;;;;;2.30;1.50;;;21.70;58.40;;;;;;5057429;28;20301;-67
2023/11/03 03:00:44;;;;;;;1.57;1.47;;;21.70;58.40;;;;;;5057707;28;20167;-67
2023/11/03 03:03:10;;;;;;;1.80;1.47;;;21.70;58.40;;;;;;5057750;28;20468;-66
2023/11/03 03:05:36;;;;;;;1.50;1.40;;;21.70;58.40;;;;;;5057327;28;20187;-66
2023/11/03 03:08:05;;;;;;;2.13;1.93;;;21.70;58.40;;;;;;5057288;28;20412;-66
2023/11/03 03:10:32;;;;;;;2.10;1.37;;;21.70;58.40;;;;;;5057483;28;20260;-66
2023/11/03 03:12:57;;;;;;;1.80;1.50;;;21.70;58.40;;;;;;5057147;28;20455;-66
2023/11/03 03:15:23;;;;;;;1.57;1.40;;;21.70;58.30;;;;;;5056849;28;20457;-66
2023/11/03 03:17:49;;;;;;;2.13;1.60;;;21.70;58.30;;;;;;5056874;28;20193;-67
2023/11/03 03:20:15;;;;;;;1.30;1.20;;;21.70;58.30;;;;;;5057679;28;20414;-66
2023/11/03 03:22:41;;;;;;;1.97;1.63;;;21.70;58.40;;;;;;5057317;28;20221;-66
2023/11/03 03:25:07;;;;;;;1.60;1.17;;;21.70;58.30;;;;;;5057161;28;20678;-66
2023/11/03 03:27:34;;;;;;;1.67;1.30;;;21.70;58.40;;;;;;5057378;28;20187;-66
2023/11/03 03:30:01;;;;;;;2.07;1.40;;;21.70;58.30;;;;;;5056643;28;20443;-66
2023/11/03 03:32:26;;;;;;;2.60;1.80;;;21.70;58.30;;;;;;5057708;28;20405;-67
2023/11/03 03:34:52;;;;;;;1.80;1.47;;;21.70;58.30;;;;;;5057155;28;20548;-67
2023/11/03 03:37:17;;;;;;;1.63;1.40;;;21.70;58.30;;;;;;5056627;28;20654;-67
2023/11/03 03:39:44;;;;;;;1.67;1.50;;;21.70;58.30;;;;;;5056805;28;20198;-66
2023/11/03 03:42:10;;;;;;;1.80;1.50;;;21.70;58.30;;;;;;5055417;28;20171;-66
2023/11/03 03:44:41;;;;;;;1.73;1.27;;;21.70;58.30;;;;;;5056403;28;20787;-67
2023/11/03 03:47:09;;;;;;;2.10;1.40;;;21.70;58.30;;;;;;5056540;28;20225;-66
2023/11/03 03:49:35;;;;;;;1.33;1.20;;;21.70;58.30;;;;;;5056362;28;20471;-66
2023/11/03 03:52:00;;;;;;;1.50;1.40;;;21.70;58.30;;;;;;5057178;28;20501;-66
2023/11/03 03:54:26;;;;;;;2.40;1.43;;;21.70;58.30;;;;;;5055880;28;20492;-66
2023/11/03 03:56:52;;;;;;;1.50;1.37;;;21.70;58.30;;;;;;5056650;28;20206;-66
2023/11/03 03:59:17;;;;;;;1.50;1.27;;;21.70;58.40;;;;;;5056975;28;20167;-68
2023/11/03 04:01:43;;;;;;;1.83;1.50;;;21.70;58.30;;;;;;5056914;28;20209;-66
2023/11/03 04:04:09;;;;;;;1.60;1.40;;;21.70;58.40;;;;;;5055931;28;20182;-66
2023/11/03 04:06:34;;;;;;;1.60;1.50;;;21.60;58.30;;;;;;5056206;28;20556;-66
2023/11/03 04:09:00;;;;;;;1.93;1.27;;;21.70;58.40;;;;;;5056122;28;20309;-66
2023/11/03 04:11:26;;;;;;;1.47;1.37;;;21.70;58.40;;;;;;5056403;28;20183;-66
2023/11/03 04:13:52;;;;;;;1.63;1.30;;;21.70;58.40;;;;;;5057132;28;20202;-67
2023/11/03 04:16:17;;;;;;;2.07;1.47;;;21.60;58.30;;;;;;5056118;28;20186;-66
2023/11/03 04:18:43;;;;;;;1.50;1.20;;;21.70;58.40;;;;;;5055657;28;20900;-66
2023/11/03 04:21:09;;;;;;;1.33;1.20;;;21.60;58.30;;;;;;5056098;28;20194;-66
2023/11/03 04:23:35;;;;;;;1.67;1.57;;;21.60;58.30;;;;;;5055652;28;20238;-66
2023/11/03 04:26:00;;;;;;;1.83;1.30;;;21.60;58.30;;;;;;5055324;28;20425;-67
2023/11/03 04:28:26;;;;;;;1.30;1.17;;;21.60;58.30;;;;;;5055909;28;20178;-68
2023/11/03 04:30:52;;;;;;;1.43;1.30;;;21.60;58.30;;;;;;5055610;28;20263;-67
2023/11/03 04:33:17;;;;;;;1.90;1.73;;;21.60;58.20;;;;;;5056267;28;20171;-67
2023/11/03 04:35:43;;;;;;;1.80;1.23;;;21.60;58.30;;;;;;5056012;28;20198;-67
2023/11/03 04:38:11;;;;;;;1.77;1.40;;;21.60;58.30;;;;;;5056045;28;20177;-68
2023/11/03 04:40:37;;;;;;;2.40;1.47;;;21.60;58.20;;;;;;5055707;28;20202;-66
2023/11/03 04:43:02;;;;;;;1.80;1.40;;;21.60;58.20;;;;;;5055400;28;20405;-66
2023/11/03 04:45:28;;;;;;;1.60;1.20;;;21.60;58.20;;;;;;5055623;28;20200;-67
2023/11/03 04:47:54;;;;;;;1.60;1.50;;;21.60;58.20;;;;;;5055554;28;20181;-66
2023/11/03 04:50:19;;;;;;;1.97;1.70;;;21.60;58.30;;;;;;5055410;28;20206;-66
2023/11/03 04:52:45;;;;;;;2.20;1.80;;;21.60;58.20;;;;;;5056011;28;20171;-67
2023/11/03 04:55:11;;;;;;;1.90;1.30;;;21.60;58.20;;;;;;5055758;28;20256;-67
2023/11/03 04:57:37;;;;;;;1.40;1.23;;;21.60;58.20;;;;;;5055682;28;20912;-65
2023/11/03 05:00:09;;;;;;;1.70;1.33;;;21.60;58.20;;;;;;5055585;28;20660;-66
2023/11/03 05:02:35;;;;;;;1.40;1.03;;;21.60;58.20;;;;;;5055069;28;20397;-66
2023/11/03 05:05:01;;;;;;;3.47;1.30;;;21.60;58.20;;;;;;5055270;28;20436;-66
2023/11/03 05:07:26;;;;;;;2.80;1.90;;;21.60;58.20;;;;;;5053544;28;20426;-66
2023/11/03 05:09:52;;;;;;;1.40;1.20;;;21.60;58.20;;;;;;5055742;28;20406;-66
2023/11/03 05:12:18;;;;;;;2.40;1.30;;;21.60;58.20;;;;;;5055482;28;20175;-67
2023/11/03 05:14:44;;;;;;;1.37;1.10;;;21.60;58.20;;;;;;5055124;28;20205;-66
2023/11/03 05:17:09;;;;;;;1.47;1.33;;;21.60;58.20;;;;;;5055143;28;20421;-66
2023/11/03 05:19:35;;;;;;;2.30;1.23;;;21.60;58.20;;;;;;5055088;28;20700;-66
2023/11/03 05:22:02;;;;;;;1.97;1.47;;;21.60;58.80;;;;;;5055544;28;20171;-66
2023/11/03 05:24:28;;;;;;;1.10;1.00;;;21.60;58.20;;;;;;5054102;28;20183;-66
2023/11/03 05:26:54;;;;;;;4.20;1.73;;;21.60;58.20;;;;;;5055337;28;20524;-67
2023/11/03 05:29:22;;;;;;;2.00;1.63;;;21.50;58.20;;;;;;5055224;28;20447;-66
2023/11/03 05:31:51;;;;;;;1.70;1.27;;;21.60;58.30;;;;;;5054890;28;20641;-67
2023/11/03 05:34:17;;;;;;;1.30;1.20;;;21.50;58.20;;;;;;5055101;28;20453;-66
2023/11/03 05:36:42;;;;;;;1.40;1.20;;;21.60;58.30;;;;;;5054756;28;20429;-66
2023/11/03 05:39:12;;;;;;;2.07;1.40;;;21.60;58.30;;;;;;5055302;28;20206;-66
2023/11/03 05:41:37;;;;;;;2.20;1.40;;;21.50;58.20;;;;;;5055585;28;20171;-66
2023/11/03 05:44:03;;;;;;;1.37;1.27;;;21.50;58.20;;;;;;5055741;28;20416;-67
2023/11/03 05:46:29;;;;;;;1.77;1.67;;;21.50;58.30;;;;;;5055625;28;20203;-67
2023/11/03 05:48:56;;;;;;;1.57;1.47;;;21.50;58.30;;;;;;5054672;28;20194;-64
2023/11/03 05:51:22;;;;;;;1.40;1.20;;;21.60;58.30;;;;;;5054912;28;20170;-65
2023/11/03 05:53:50;;;;;;;1.57;1.40;;;21.50;58.30;;;;;;5054822;28;20526;-67
2023/11/03 05:56:17;;;;;;;1.37;1.23;;;21.50;58.20;;;;;;5054745;28;20269;-66
2023/11/03 05:58:43;;;;;;;1.27;1.17;;;21.60;58.30;;;;;;5053759;28;20413;-67
2023/11/03 06:01:09;;;;;;;1.30;1.20;;;21.60;58.30;;;;;;5054800;28;20417;-67
2023/11/03 06:03:35;;;;;;;2.20;1.30;;;21.50;58.20;;;;;;5055537;28;20418;-66
2023/11/03 06:06:01;;;;;;;1.80;1.30;;;21.60;58.30;;;;;;5055269;28;20491;-67
2023/11/03 06:08:27;;;;;;;1.43;1.20;;;21.60;58.30;;;;;;5055446;28;20405;-68
2023/11/03 06:10:53;;;;;;;1.70;1.40;;;21.50;58.20;;;;;;5054969;28;20250;-66
2023/11/03 06:13:18;;;;;;;1.40;0.93;;;21.50;58.20;;;;;;5055525;28;20468;-66
2023/11/03 06:15:44;;;;;;;1.80;1.30;;;21.50;58.20;;;;;;5056566;28;20186;-66
2023/11/03 06:18:10;;;;;;;1.60;1.50;;;21.50;58.20;;;;;;5059222;28;20826;-67
2023/11/03 06:20:36;;;;;;;2.13;1.27;;;21.50;58.20;;;;;;5058742;28;20229;-68
2023/11/03 06:23:02;;;;;;;1.60;1.30;;;21.60;58.30;;;;;;5059053;28;20227;-65
2023/11/03 06:25:29;;;;;;;2.60;1.40;;;21.50;58.30;;;;;;5057559;28;20979;-65
2023/11/03 06:27:55;;;;;;;2.80;1.17;;;21.60;58.30;;;;;;5058800;28;20175;-66
2023/11/03 06:30:21;;;;;;;1.60;1.47;;;21.50;58.20;;;;;;5058798;28;20432;-68
2023/11/03 06:32:46;;;;;;;3.00;1.30;;;21.60;58.30;;;;;;5058590;28;20191;-64
2023/11/03 06:35:12;;;;;;;1.63;1.43;;;21.60;58.30;;;;;;5058562;28;20215;-67
2023/11/03 06:37:37;;;;;;;1.63;1.37;;;21.50;58.60;;;;;;5057671;28;20215;-64
2023/11/03 06:40:04;;;;;;;3.50;1.30;;;21.60;58.30;;;;;;5058847;28;20549;-67
2023/11/03 06:42:29;;;;;;;2.70;1.23;;;21.60;58.30;;;;;;5058767;28;20214;-66
2023/11/03 06:44:55;;;;;;;1.50;1.10;;;21.50;58.30;;;;;;5058645;28;20834;-66
2023/11/03 06:47:21;;;;;;;2.50;1.83;;;21.60;58.30;;;;;;5058345;28;20264;-66
2023/11/03 06:49:47;;;;;;;5.90;1.53;;;21.60;58.20;;;;;;5056972;28;20175;-66
2023/11/03 06:52:13;;;;;;;3.63;1.67;;;21.50;58.00;;;;;;5058313;28;20604;-66
2023/11/03 06:54:39;;;;;;;1.90;1.30;;;21.50;57.90;;;;;;5056615;28;20252;-68
2023/11/03 06:57:06;;;;;;;3.03;1.50;;;21.50;57.90;;;;;;5058273;28;20410;-66
2023/11/03 06:59:35;;;;;;;1.83;1.47;;;21.60;58.00;;;;;;5058418;28;20592;-67
2023/11/03 07:02:01;;;;;;;1.73;1.47;;;21.50;58.00;;;;;;5058128;28;20401;-66
2023/11/03 07:04:27;;;;;;;1.20;1.10;;;21.50;58.00;;;;;;5057665;28;20967;-67
2023/11/03 07:06:52;;;;;;;2.87;1.23;;;21.50;58.00;;;;;;5058106;28;20425;-66
2023/11/03 07:09:18;;;;;;;1.40;1.30;;;21.60;58.10;;;;;;5057185;28;20281;-67
2023/11/03 07:11:44;;;;;;;2.50;1.87;;;21.60;58.10;;;;;;5058001;28;20646;-66
2023/11/03 07:14:10;;;;;;;3.77;1.70;;;21.60;58.10;;;;;;5057706;28;20464;-66
2023/11/03 07:16:41;;;;;;;1.63;1.13;;;21.60;58.10;;;;;;5057638;28;20199;-66
2023/11/03 07:19:08;;;;;;;1.83;1.33;;;21.60;58.10;;;;;;5057509;28;20983;-66
2023/11/03 07:21:34;;;;;;;1.57;1.33;;;21.60;58.10;;;;;;5057746;28;20419;-67
2023/11/03 07:23:59;;;;;;;1.50;1.00;;;21.50;58.10;;;;;;5057620;28;20511;-68
2023/11/03 07:26:27;;;;;;;2.60;1.50;;;21.60;58.10;;;;;;5056931;28;20677;-66
2023/11/03 07:28:52;;;;;;;1.73;1.50;;;21.60;58.20;;;;;;5057873;28;20206;-64
2023/11/03 07:31:18;;;;;;;1.50;1.30;;;21.60;58.20;;;;;;5057399;28;20840;-68
2023/11/03 07:33:44;;;;;;;1.20;1.07;;;21.60;58.20;;;;;;5056111;28;20203;-67
2023/11/03 07:36:11;;;;;;;1.40;1.30;;;21.60;58.20;;;;;;5056838;28;20191;-67
2023/11/03 07:38:36;;;;;;;2.60;1.97;;;21.60;58.20;;;;;;5057769;28;20175;-66
2023/11/03 07:41:03;;;;;;;3.93;1.60;;;21.60;58.30;;;;;;5055596;28;20496;-65
2023/11/03 07:43:30;;;;;;;2.53;1.60;;;21.60;58.30;;;;;;5052470;28;20567;-66
2023/11/03 07:45:55;;;;;;;1.50;1.30;;;21.60;58.30;;;;;;5052246;28;20421;-65
2023/11/03 07:48:22;;;;;;;7.90;2.23;;;21.60;58.20;;;;;;5052480;28;20416;-66
2023/11/03 07:50:48;;;;;;;1.37;1.27;;;21.60;58.30;;;;;;5052905;28;20167;-67
2023/11/03 07:53:14;;;;;;;1.60;1.30;;;21.60;58.40;;;;;;5054671;28;20946;-66
2023/11/03 07:55:39;;;;;;;1.90;1.20;;;21.60;58.30;;;;;;5054871;28;20202;-67
2023/11/03 07:58:05;;;;;;;2.27;1.50;;;21.60;58.30;;;;;;5052967;28;20186;-66
2023/11/03 08:00:31;;;;;;;1.67;1.20;;;21.60;58.30;;;;;;5052017;28;20570;-66
2023/11/03 08:02:59;;;;;;;2.10;1.30;;;21.70;58.40;;;;;;5051604;28;20293;-66
2023/11/03 08:05:25;;;;;;;1.30;1.10;;;21.70;58.40;;;;;;5051494;28;20434;-65
2023/11/03 08:07:51;;;;;;;1.97;1.50;;;21.70;58.30;;;;;;5051482;28;20792;-67
2023/11/03 08:10:16;;;;;;;3.63;1.10;;;21.70;58.80;;;;;;5051420;28;20199;-69
2023/11/03 08:12:42;;;;;;;1.83;1.20;;;21.70;58.30;;;;;;5050631;28;20229;-67
2023/11/03 08:15:08;;;;;;;1.83;1.30;;;21.70;58.30;;;;;;5051265;28;20238;-66
2023/11/03 08:17:35;;;;;;;1.43;1.30;;;21.70;58.30;;;;;;5051257;28;20261;-68
2023/11/03 08:20:03;;;;;;;1.73;1.30;;;21.70;58.40;;;;;;5051342;28;20445;-68
2023/11/03 08:22:29;;;;;;;1.23;1.10;;;21.70;58.30;;;;;;5051295;28;20415;-68
2023/11/03 08:24:56;;;;;;;1.50;1.40;;;21.70;58.30;;;;;;5051233;28;20437;-67
2023/11/03 08:27:22;;;;;;;1.77;1.33;;;21.70;58.30;;;;;;5051214;28;20417;-67
2023/11/03 08:29:49;;;;;;;1.27;1.10;;;21.70;58.30;;;;;;5051078;28;20482;-67
2023/11/03 08:32:15;;;;;;;1.30;1.20;;;21.70;58.40;;;;;;5050019;28;20417;-68
2023/11/03 08:34:41;;;;;;;1.70;1.27;;;21.70;58.30;;;;;;5050870;28;20460;-68
2023/11/03 08:37:07;;;;;;;4.30;1.90;;;21.70;58.30;;;;;;5051274;28;20461;-66
2023/11/03 08:39:33;;;;;;;1.97;1.23;;;21.70;58.40;;;;;;5050652;28;20524;-67
2023/11/03 08:42:02;;;;;;;2.07;1.37;;;21.70;58.40;;;;;;5052932;28;20200;-65
2023/11/03 08:44:28;;;;;;;3.03;1.30;;;21.70;58.40;;;;;;5057424;28;20421;-67
2023/11/03 08:46:53;;;;;;;1.87;1.10;;;21.70;58.40;;;;;;5056477;28;20440;-65
2023/11/03 08:49:19;;;;;;;1.60;1.23;;;21.70;58.40;;;;;;5053967;28;20421;-66
2023/11/03 08:51:45;;;;;;;2.60;1.90;;;21.70;58.40;;;;;;5057727;28;20549;-66
2023/11/03 08:54:11;;;;;;;2.63;1.30;;;21.70;58.40;;;;;;5057883;28;20211;-66
2023/11/03 08:56:39;;;;;;;1.33;1.13;;;21.70;58.40;;;;;;5055346;28;20658;-66
2023/11/03 08:59:04;;;;;;;2.03;1.20;;;21.70;58.40;;;;;;5053810;28;20409;-66
2023/11/03 09:01:30;;;;;;;1.70;1.13;;;21.70;58.40;;;;;;5050685;28;20413;-67
2023/11/03 09:03:56;;;;;;;1.30;1.13;;;21.70;58.40;;;;;;5051755;28;20186;-67
2023/11/03 09:06:22;;;;;;;1.70;1.20;;;21.70;58.40;;;;;;5051248;28;20241;-66
2023/11/03 09:08:48;;;;;;;1.87;1.13;;;21.70;58.50;;;;;;5051028;28;20887;-66
2023/11/03 09:11:14;;;;;;;2.00;1.50;;;21.70;58.50;;;;;;5050873;28;20166;-67
2023/11/03 09:13:53;;;;;;;1.60;1.20;;;21.70;58.50;;;;;;5051097;28;20417;-66
2023/11/03 09:16:22;;;;;;;2.20;1.13;;;21.70;58.50;;;;;;5050972;28;20220;-67
2023/11/03 09:18:52;;;;;;;1.77;1.33;;;21.70;58.50;;;;;;5051057;28;20440;-68
2023/11/03 09:21:18;;;;;;;1.60;1.40;;;21.80;58.60;;;;;;5051479;28;20412;-67
2023/11/03 09:23:44;;;;;;;2.70;1.40;;;21.70;58.50;;;;;;5051319;28;20436;-66
2023/11/03 09:26:09;;;;;;;2.10;1.30;;;21.70;58.50;;;;;;5052372;28;20429;-66
2023/11/03 09:28:36;;;;;;;3.30;1.47;;;21.80;58.50;;;;;;5053973;28;20183;-66
2023/11/03 09:31:02;;;;;;;3.00;1.57;;;21.70;58.50;;;;;;5055184;28;20179;-65
2023/11/03 09:33:28;;;;;;;2.45;1.50;;;21.80;58.50;;;;;;5055251;28;20413;-67
2023/11/03 09:35:54;;;;;;;3.60;1.40;;;21.80;58.50;;;;;;5055615;28;20440;-67
2023/11/03 09:38:20;;;;;;;1.80;1.17;;;21.80;58.40;;;;;;5056594;28;20178;-66
2023/11/03 09:40:46;;;;;;;1.47;1.37;;;21.80;58.40;;;;;;5052788;28;20775;-67
2023/11/03 09:43:13;;;;;;;3.87;1.50;;;21.80;58.40;;;;;;5050089;28;20420;-67
2023/11/03 09:45:42;;;;;;;1.80;1.37;;;21.80;58.40;;;;;;5050638;28;20521;-69
2023/11/03 09:48:08;;;;;;;3.50;1.20;;;21.80;58.40;;;;;;5050367;28;20418;-65
2023/11/03 09:50:36;;;;;;;6.90;1.50;;;21.80;58.40;;;;;;5053657;28;20935;-68
2023/11/03 09:53:10;;;;;;;1.70;1.30;;;21.70;58.30;;;;;;5054197;28;20236;-67
2023/11/03 09:55:37;;;;;;;1.40;1.00;;;21.80;58.40;;;;;;5054240;28;20468;-68
2023/11/03 09:58:05;;;;;;;2.03;1.20;;;21.70;58.30;;;;;;5054588;28;20413;-68
2023/11/03 10:00:32;;;;;;;2.10;1.40;;;21.70;58.30;;;;;;5054544;28;20409;-67
2023/11/03 10:02:58;;;;;;;3.47;1.30;;;21.80;58.40;;;;;;5054621;28;20405;-66
2023/11/03 10:05:26;;;;;;;2.60;1.50;;;21.70;58.30;;;;;;5052645;28;20448;-67
2023/11/03 10:08:04;;;;;;;3.20;1.40;;;21.80;58.40;;;;;;5054278;28;20247;-69
2023/11/03 10:10:34;;;;;;;2.10;1.30;;;21.70;58.30;;;;;;5054636;28;20401;-70
2023/11/03 10:13:01;;;;;;;2.13;1.30;;;21.70;58.80;;;;;;5053969;28;20425;-70
2023/11/03 10:15:26;;;;;;;3.73;1.17;;;21.70;58.30;;;;;;5054145;28;20839;-67
2023/11/03 10:17:53;;;;;;;1.87;1.30;;;21.80;58.40;;;;;;5053871;28;20429;-67
2023/11/03 10:20:20;;;;;;;2.00;1.30;;;21.70;58.30;;;;;;5053589;28;20183;-68
2023/11/03 10:22:47;;;;;;;2.07;1.30;;;21.70;58.40;;;;;;5053611;28;20405;-68
2023/11/03 10:25:14;;;;;;;1.70;1.20;;;21.70;58.40;;;;;;5053962;28;20429;-67
2023/11/03 10:27:39;;;;;;;3.30;1.60;;;21.70;58.40;;;;;;5054669;28;20475;-69
2023/11/03 10:30:07;;;;;;;2.17;1.30;;;21.70;58.50;;;;;;5053892;28;20859;-67
2023/11/03 10:32:33;;;;;;;1.73;1.63;;;21.70;58.50;;;;;;5054293;28;20409;-68
2023/11/03 10:35:05;;;;;;;1.70;1.10;;;21.70;58.50;;;;;;5054361;28;20531;-67
2023/11/03 10:37:35;;;;;;;1.87;1.20;;;21.80;58.60;;;;;;5054916;28;20424;-69
2023/11/03 10:40:00;;;;;;;1.60;1.40;;;21.80;58.60;;;;;;5054212;28;20471;-67
2023/11/03 10:42:27;;;;;;;1.90;1.10;;;21.80;58.60;;;;;;5053817;28;20940;-68
2023/11/03 10:44:57;;;;;;;3.40;1.50;;;21.70;58.60;;;;;;5054068;28;20258;-67
2023/11/03 10:47:30;;;;;;;3.47;1.40;;;21.70;58.50;;;;;;5053645;28;20685;-68
2023/11/03 10:50:05;;;;;;;4.00;1.30;;;21.70;58.50;;;;;;5053678;28;20415;-69
2023/11/03 10:52:41;;;;;;;1.73;1.50;;;21.70;58.50;;;;;;5053743;28;20394;-69
2023/11/03 10:55:14;;;;;;;1.87;1.10;;;21.70;58.50;;;;;;5053091;28;20464;-70
2023/11/03 10:57:41;;;;;;;2.43;1.23;;;21.70;58.40;;;;;;5054094;28;20416;-68
2023/11/03 11:00:19;;;;;;;1.70;1.50;;;21.70;58.50;;;;;;5056640;28;20464;-66
2023/11/03 11:03:09;;;;;;;1.10;1.00;;;21.70;58.50;;;;;;5056033;28;20444;-66
2023/11/03 11:05:38;;;;;;;1.30;1.20;;;21.80;58.50;;;;;;5056557;28;20426;-66
2023/11/03 11:08:04;;;;;;;1.80;1.30;;;21.70;58.40;;;;;;5056661;28;20445;-66
2023/11/03 11:10:40;;;;;;;1.53;1.30;;;21.70;58.40;;;;;;5057345;28;20417;-67
2023/11/03 11:13:17;;;;;;;2.43;1.40;;;21.70;58.40;;;;;;5057962;28;20488;-65
2023/11/03 11:16:02;;;;;;;2.23;0.97;;;21.70;58.40;;;;;;5057037;28;20527;-65
2023/11/03 11:18:32;;;;;;;1.47;1.33;;;21.70;58.40;;;;;;5057256;28;20429;-66
2023/11/03 11:21:06;;;;;;;1.70;1.40;;;21.70;58.40;;;;;;5057750;28;20420;-65
2023/11/03 11:23:38;;;;;;;2.50;1.17;;;21.70;58.40;;;;;;5057609;28;20440;-65
2023/11/03 11:26:13;;;;;;;1.10;1.00;;;21.70;58.40;;;;;;5056943;28;20429;-66
2023/11/03 11:28:39;;;;;;;3.20;1.37;;;21.70;58.50;;;;;;5056328;28;20459;-67
2023/11/03 11:31:27;;;;;;;2.13;1.03;;;21.70;58.50;;;;;;5056141;28;20413;-65
2023/11/03 11:34:03;;;;;;;2.30;1.20;;;21.70;58.50;;;;;;5056365;28;20233;-65
2023/11/03 11:36:33;;;;;;;3.37;1.87;;;21.70;58.50;;;;;;5057520;28;20437;-65
2023/11/03 11:39:13;;;;;;;2.97;1.90;;;21.70;58.50;;;;;;5058476;28;20410;-65
2023/11/03 11:41:59;;;;;;;5.33;2.13;;;21.70;58.50;;;;;;5058661;28;20390;-67
2023/11/03 11:44:29;;;;;;;7.50;3.17;;;21.70;58.50;;;;;;5058388;28;20909;-65
2023/11/03 11:46:58;;;;;;;4.63;2.50;;;21.70;58.60;;;;;;5056810;28;20433;-65
2023/11/03 11:49:27;;;;;;;17.03;8.83;;;21.70;58.60;;;;;;5056623;28;20409;-65
2023/11/03 11:51:55;;;;;;;33.03;19.13;;;21.70;58.50;;;;;;5041240;28;20430;-67
2023/11/03 11:54:22;;;;;;;30.90;15.80;;;21.70;58.50;;;;;;5037021;28;21006;-65
2023/11/03 11:56:48;;;;;;;47.73;24.27;;;21.70;58.50;;;;;;5034552;28;20438;-66
2023/11/03 11:59:19;;;;;;;36.23;19.20;;;21.70;58.40;;;;;;5034824;28;20417;-67
2023/11/03 12:01:46;;;;;;;62.83;28.10;;;21.70;58.40;;;;;;5033431;28;20399;-66
2023/11/03 12:04:12;;;;;;;73.00;30.97;;;21.70;58.50;;;;;;5033880;28;20843;-67
2023/11/03 12:06:40;;;;;;;90.97;34.23;;;21.70;58.40;;;;;;5035366;28;20445;-65
2023/11/03 12:09:07;;;;;;;63.40;29.23;;;21.70;58.50;;;;;;5035553;28;20490;-66
2023/11/03 12:11:33;;;;;;;66.80;28.77;;;21.70;58.50;;;;;;5036234;28;20419;-66
2023/11/03 12:13:59;;;;;;;89.90;37.07;;;21.70;58.50;;;;;;5035079;28;20467;-66
2023/11/03 12:16:26;;;;;;;81.70;31.60;;;21.70;58.60;;;;;;5035417;28;20426;-64
2023/11/03 12:18:55;;;;;;;72.90;35.80;;;21.70;59.20;;;;;;5035430;28;20438;-67
2023/11/03 12:21:24;;;;;;;103.37;38.17;;;21.70;58.70;;;;;;5035427;28;20433;-66
2023/11/03 12:24:00;;;;;;;86.20;38.20;;;21.70;58.60;;;;;;5035256;28;20429;-66
2023/11/03 12:26:26;;;;;;;101.53;42.13;;;21.70;58.70;;;;;;5035670;28;20999;-66
2023/11/03 12:29:11;;;;;;;110.30;41.40;;;21.70;58.60;;;;;;5036146;28;20414;-66
2023/11/03 12:31:37;;;;;;;93.83;38.33;;;21.70;58.60;;;;;;5034129;28;20518;-65
2023/11/03 12:34:03;;;;;;;83.63;39.03;;;21.70;58.70;;;;;;5034654;28;20545;-66
2023/11/03 12:36:29;;;;;;;63.07;29.60;;;21.70;58.70;;;;;;5034960;28;20481;-66
2023/11/03 12:38:56;;;;;;;106.37;42.30;;;21.70;58.70;;;;;;5034833;28;20418;-64
2023/11/03 12:41:22;;;;;;;86.03;37.10;;;21.70;58.70;;;;;;5034678;28;20442;-66
2023/11/03 12:43:54;;;;;;;96.00;41.10;;;21.70;58.70;;;;;;5034773;28;20421;-63